Flight Track Log - Related Links

Times and Time Zones

All times are in EDT time to prevent confusion due to time zone crossing. See the TRS9348 flight status page for this flight to view local times or setup timezone preferences in your user account.

Time Position Orientation Groundspeed Altitude Reporting Facility
EDT Latitude Longitude Course Direction KTS MPH feet Rate Location/Type
Wed 09:00:46 PM 34.9680 -79.2420 270° West 364 419 15,300  Level FlightAware ADS-B
Wed 09:01:00 PM 34.9500 -79.4498 270° West  Level FlightAware Approximate
Wed 09:01:32 PM 34.9630 -79.3430 267° West 383 441 18,200  Level FlightAware ADS-B
Wed 09:02:12 PM 34.9580 -79.4320 266° West 399 459 20,700 3,429 Climbing FlightAware ADS-B
Wed 09:02:56 PM 34.9530 -79.5330 267° West 416 479 23,000 2,929 Climbing FlightAware ADS-B
Wed 09:03:36 PM 34.9480 -79.6270 266° West 432 497 24,800 2,667 Climbing FlightAware ADS-B
Wed 09:04:17 PM 34.9430 -79.7270 267° West 447 514 26,600 2,684 Climbing FlightAware ADS-B
Wed 09:04:52 PM 34.9380 -79.8160 266° West 452 520 28,200 2,889 Climbing FlightAware ADS-B
Wed 09:05:38 PM 34.9310 -79.9330 266° West 450 518 30,500 3,225 Climbing FlightAware ADS-B
Wed 09:06:12 PM 34.9260 -80.0180 266° West 440 506 32,500 2,561 Climbing FlightAware ADS-B
Wed 09:07:00 PM 34.9190 -80.1380 266° West 442 509 34,000 978 Climbing FlightAware ADS-B
Wed 09:07:44 PM 34.9130 -80.2450 266° West 446 513 34,000  Level FlightAware ADS-B
Wed 09:08:24 PM 34.9070 -80.3490 266° West 446 513 34,000  Level FlightAware ADS-B
Wed 09:09:08 PM 34.9010 -80.4570 266° West 446 513 34,000  Level FlightAware ADS-B
Wed 09:09:40 PM 34.8960 -80.5360 266° West 447 514 34,000  Level FlightAware ADS-B
Wed 09:10:24 PM 34.8890 -80.6460 266° West 446 513 34,000  Level FlightAware ADS-B
Wed 09:10:58 PM 34.8840 -80.7320 266° West 445 512 34,000  Level FlightAware ADS-B
Wed 09:12:03 PM 34.8740 -80.8920 266° West 444 511 34,000  Level FlightAware ADS-B
Wed 09:12:45 PM 34.8670 -80.9990 265° West 445 512 34,000  Level FlightAware ADS-B
Wed 09:13:27 PM 34.8600 -81.1020 265° West 446 513 34,000  Level FlightAware ADS-B
Wed 09:14:09 PM 34.8530 -81.2100 266° West 448 516 34,000  Level FlightAware ADS-B
Wed 09:14:55 PM 34.8450 -81.3240 265° West 447 514 34,000  Level FlightAware ADS-B
Wed 09:15:27 PM 34.8400 -81.4040 266° West 446 513 34,000  Level FlightAware ADS-B
Wed 09:16:11 PM 34.8320 -81.5140 265° West 439 505 34,000  Level FlightAware ADS-B
Wed 09:16:51 PM 34.8250 -81.6120 265° West 439 505 34,000  Level FlightAware ADS-B
Wed 09:17:27 PM 34.8190 -81.7010 265° West 438 504 34,000  Level FlightAware ADS-B
Wed 09:18:03 PM 34.8130 -81.7890 265° West 440 506 34,000  Level FlightAware ADS-B
Wed 09:18:51 PM 34.8050 -81.9060 265° West 440 506 34,000 -68 Level FlightAware ADS-B
Wed 09:19:31 PM 34.7980 -81.9990 265° West 440 506 33,900 -600 Descending FlightAware ADS-B
Wed 09:20:11 PM 34.7900 -82.1030 265° West 443 510 33,200 -975 Descending FlightAware ADS-B
Wed 09:20:51 PM 34.7840 -82.1910 265° West 446 513 32,600 -988 Descending FlightAware ADS-B
Wed 09:21:36 PM 34.7750 -82.3120 265° West 444 511 31,800 -988 Descending FlightAware ADS-B
Wed 09:22:16 PM 34.7670 -82.4140 265° West 448 516 31,200 -960 Descending FlightAware ADS-B
Wed 09:22:51 PM 34.7600 -82.5000 264° West 452 520 30,600 -975 Descending FlightAware ADS-B
Wed 09:23:36 PM 34.7510 -82.6150 265° West 457 526 29,900 -982 Descending FlightAware ADS-B
Wed 09:24:41 PM 34.7370 -82.7790 264° West 462 532 28,800 -776 Descending FlightAware ADS-B
Wed 09:25:32 PM 34.7210 -82.7780 177° South 456 525 28,400 -1,019 Descending FlightAware ADS-B
Wed 09:26:27 PM 34.6220 -83.0030 242° Southwest 441 507 27,000 -1,212 Descending FlightAware ADS-B
Wed 09:27:11 PM 34.5760 -83.0980 240° Southwest 450 518 26,400 -929 Descending FlightAware ADS-B
Wed 09:27:51 PM 34.5310 -83.1890 239° Southwest 461 531 25,700 -975 Descending FlightAware ADS-B
Wed 09:28:31 PM 34.4790 -83.2680 231° Southwest 461 531 25,100 -1,465 Descending FlightAware ADS-B
Wed 09:29:17 PM 34.4170 -83.3600 231° Southwest 453 521 23,600 -1,857 Descending FlightAware ADS-B
Wed 09:29:55 PM 34.3670 -83.4320 230° Southwest 424 488 22,500 -2,357 Descending FlightAware ADS-B
Wed 09:30:41 PM 34.3110 -83.5150 231° Southwest 406 467 20,300 -2,372 Descending FlightAware ADS-B
Wed 09:31:21 PM 34.2650 -83.5830 231° Southwest 369 425 19,100 -1,610 Descending FlightAware ADS-B
Wed 09:32:03 PM 34.2220 -83.6460 230° Southwest 345 397 18,100 -1,846 Descending FlightAware ADS-B
Wed 09:32:39 PM 34.1860 -83.6990 231° Southwest 338 389 16,700 -2,268 Descending FlightAware ADS-B
Wed 09:33:25 PM 34.1410 -83.7650 231° Southwest 336 387 15,000 -2,283 Descending FlightAware ADS-B
Wed 09:34:11 PM 34.0940 -83.8320 230° Southwest 330 380 13,200 -2,357 Descending FlightAware ADS-B
Wed 09:34:49 PM 34.0530 -83.8810 225° Southwest 327 376 11,700 -2,320 Descending FlightAware ADS-B
Wed 09:35:26 PM 34.0130 -83.9240 222° Southwest 319 367 10,300 -2,215 Descending FlightAware ADS-B
Wed 09:35:54 PM 33.9820 -83.9560 221° Southwest 312 359 9,300 -1,953 Descending FlightAware ADS-B
Wed 09:36:09 PM 33.9650 -83.9750 223° Southwest 305 351 8,900 -837 Descending FlightAware ADS-B
Wed 09:36:37 PM 33.9370 -84.0060 223° Southwest 302 348 8,700 -231 Descending FlightAware ADS-B
Wed 09:37:01 PM 33.9120 -84.0320 221° Southwest 302 348 8,700 -109 Level FlightAware ADS-B
Wed 09:37:32 PM 33.8770 -84.0620 215° Southwest 296 341 8,600 -682 Descending FlightAware ADS-B
Wed 09:37:45 PM 33.8590 -84.0720 205° Southwest 294 338 8,200 -1,535 Descending FlightAware ADS-B
Wed 09:38:15 PM 33.8240 -84.0900 203° Southwest 280 322 7,500 -1,966 Descending FlightAware ADS-B
Wed 09:38:43 PM 33.7890 -84.1080 203° Southwest 284 327 6,300 -2,464 Descending FlightAware ADS-B
Wed 09:39:11 PM 33.7550 -84.1260 204° Southwest 293 337 5,200 -2,111 Descending FlightAware ADS-B
Wed 09:39:37 PM 33.7220 -84.1440 204° Southwest 293 337 4,400 -1,500 Descending FlightAware ADS-B
Wed 09:40:07 PM 33.6880 -84.1620 204° Southwest 262 302 3,800 -1,560 Descending FlightAware ADS-B
Wed 09:40:27 PM 33.6680 -84.1770 212° Southwest 257 296 3,100 -1,833 Descending FlightAware ADS-B
Wed 09:40:43 PM 33.6570 -84.1940 232° Southwest 245 282 2,700 -900 Descending FlightAware ADS-B
Wed 09:41:07 PM 33.6420 -84.2210 236° Southwest 245 282 2,500 -300 Descending FlightAware ADS-B
Wed 09:41:23 PM 33.6330 -84.2410 242° Southwest 223 257 2,500  Level FlightAware ADS-B
Wed 09:41:35 PM 33.6320 -84.2530 264° West 210 242 2,500  Level FlightAware ADS-B
Wed 09:41:59 PM 33.6320 -84.2790 270° West 203 234 2,500 -231 Level FlightAware ADS-B
Wed 09:42:27 PM 33.6320 -84.3130 270° West 207 238 2,300 -643 Descending FlightAware ADS-B
Wed 09:42:55 PM 33.6320 -84.3430 270° West 185 213 1,900 -906 Descending FlightAware ADS-B
Wed 09:43:20 PM 33.6320 -84.3670 270° West 156 180 1,500 -878 Descending FlightAware ADS-B
Wed 09:43:36 PM 33.6320 -84.3800 270° West 149 171 1,300 -643 Descending FlightAware ADS-B
Wed 09:44:16 PM 33.6320 -84.4100 270° West 135 155 900 -600 Descending FlightAware ADS-B
Wed 09:45:00 PM 33.6320 -84.4360 270° West 36 41 -1,227 Descending FlightAware ADS-B
Wed 09:45:29 PM 33.6330 -84.4390 292° West 27 31  Level FlightAware ADS-B
Wed 09:45:41 PM 33.6340 -84.4390 360° North 24 28  Level FlightAware ADS-B
Wed 09:46:50 PM 33.6340 -84.4420 270° West 15 17  Level FlightAware ADS-B
Wed 09:47:04 PM 33.6350 -84.4420 360° North 17 20  Level FlightAware ADS-B
Wed 09:47:36 PM 33.6360 -84.4420 360° North 18 21  Level FlightAware ADS-B
Wed 09:48:03 PM 33.6370 -84.4410 40° Northeast 28 32  Level FlightAware ADS-B
Wed 09:48:36 PM 33.6370 -84.4380 90° East 15 17  Level FlightAware ADS-B
Wed 09:49:00 PM 33.6370 -84.4360 90° East 16 18  Level FlightAware ADS-B
Wed 09:49:48 PM 33.6370 -84.4320 90° East 33 38  Level FlightAware ADS-B
Wed 09:50:00 PM 33.6370 -84.4310 90° East 24 28  Level FlightAware ADS-B
Wed 09:50:24 PM 33.6380 -84.4310 360° North 16 18  Level FlightAware ADS-B

Login

Don't have an account? Register now (free) for customized features, flight alerts, and more!